Time;durP1;ratioP1;P1;durP2;ratioP2;P2;SDS_P1;SDS_P2;PMS_P1;PMS_P2;Temp;Humidity;BMP_temperature;BMP_pressure;BME280_temperature;BME280_humidity;BME280_pressure;Samples;Min_cycle;Max_cycle;Signal;HPM_P1;HPM_P2
2023/03/24 00:01:03;;;;;;;8.77;3.90;;;12.40;85.90;;;;;;5069843;28;20092;-76
2023/03/24 00:03:29;;;;;;;9.57;4.78;;;12.30;85.90;;;;;;5122827;27;20039;-76
2023/03/24 00:06:01;;;;;;;9.23;4.13;;;12.30;86.00;;;;;;5088090;28;20059;-77
2023/03/24 00:08:34;;;;;;;8.85;4.18;;;12.40;86.00;;;;;;5084984;28;20039;-75
2023/03/24 00:11:10;;;;;;;11.57;4.00;;;12.40;86.20;;;;;;5086481;27;20036;-76
2023/03/24 00:13:38;;;;;;;9.25;4.03;;;12.40;86.10;;;;;;5072295;28;20032;-76
2023/03/24 00:16:09;;;;;;;6.15;3.25;;;12.30;86.10;;;;;;5071251;28;20099;-76
2023/03/24 00:18:36;;;;;;;8.68;3.90;;;12.40;86.20;;;;;;5087571;28;20036;-75
2023/03/24 00:21:03;;;;;;;8.82;3.63;;;12.30;86.10;;;;;;5076625;28;20115;-76
2023/03/24 00:23:31;;;;;;;7.35;3.60;;;12.40;86.30;;;;;;5094087;28;20040;-75
2023/03/24 00:26:07;;;;;;;8.05;3.83;;;12.30;86.20;;;;;;5087100;28;20047;-76
2023/03/24 00:28:35;;;;;;;8.98;3.90;;;12.40;86.40;;;;;;5079910;28;20494;-76
2023/03/24 00:31:03;;;;;;;6.85;3.58;;;12.30;86.40;;;;;;5079844;28;20511;-76
2023/03/24 00:33:34;;;;;;;7.13;3.33;;;12.30;86.40;;;;;;5079637;28;20031;-76
2023/03/24 00:36:01;;;;;;;7.05;3.30;;;12.30;86.50;;;;;;5081257;28;20495;-76
2023/03/24 00:38:28;;;;;;;7.97;3.58;;;12.30;86.50;;;;;;5096727;28;20043;-75
2023/03/24 00:40:53;;;;;;;7.82;3.55;;;12.30;86.50;;;;;;5096157;28;20119;-76
2023/03/24 00:43:19;;;;;;;10.30;3.97;;;12.30;86.60;;;;;;5125353;27;20137;-76
2023/03/24 00:45:46;;;;;;;6.25;3.47;;;12.30;86.60;;;;;;5079749;28;20039;-75
2023/03/24 00:48:17;;;;;;;8.30;3.50;;;12.30;86.70;;;;;;5079423;27;20043;-78
2023/03/24 00:50:50;;;;;;;7.95;3.47;;;11.80;86.50;;;;;;5110326;28;20097;-77
2023/03/24 00:53:17;;;;;;;10.70;3.90;;;12.30;86.90;;;;;;5071266;28;20039;-76
2023/03/24 00:55:46;;;;;;;13.93;4.03;;;12.30;86.80;;;;;;5082984;28;20071;-77
2023/03/24 00:58:22;;;;;;;5.80;3.33;;;12.30;86.80;;;;;;5071137;28;20043;-76
2023/03/24 01:00:51;;;;;;;9.93;4.10;;;12.30;86.90;;;;;;5095855;28;20040;-77
2023/03/24 01:03:20;;;;;;;9.30;4.18;;;12.30;87.00;;;;;;5084431;28;20155;-76
2023/03/24 01:05:47;;;;;;;8.18;3.78;;;12.30;87.00;;;;;;5079731;28;20032;-76
2023/03/24 01:08:19;;;;;;;7.22;3.28;;;12.30;87.00;;;;;;5096393;28;20046;-77
2023/03/24 01:10:49;;;;;;;8.63;4.10;;;12.30;87.10;;;;;;5096520;28;20123;-76
2023/03/24 01:13:16;;;;;;;5.63;2.97;;;12.30;87.10;;;;;;5079080;28;20510;-77
2023/03/24 01:15:44;;;;;;;7.72;3.65;;;12.30;87.10;;;;;;5079336;28;20406;-76
2023/03/24 01:18:11;;;;;;;7.80;3.38;;;12.30;87.20;;;;;;5078998;28;20032;-76
2023/03/24 01:20:39;;;;;;;8.23;3.45;;;12.30;87.20;;;;;;5078937;28;20040;-77
2023/03/24 01:23:06;;;;;;;8.57;3.45;;;12.30;87.20;;;;;;5095727;28;20046;-76
2023/03/24 01:25:35;;;;;;;6.47;3.05;;;12.30;87.30;;;;;;5079455;28;20039;-76
2023/03/24 01:28:01;;;;;;;5.18;2.90;;;12.30;87.40;;;;;;5079284;28;20058;-76
2023/03/24 01:30:28;;;;;;;5.88;3.72;;;12.30;87.40;;;;;;5079531;28;20495;-76
2023/03/24 01:32:55;;;;;;;6.55;2.92;;;12.30;87.50;;;;;;5078765;28;20035;-76
2023/03/24 01:35:24;;;;;;;6.47;3.10;;;12.30;87.50;;;;;;5059117;28;20032;-76
2023/03/24 01:37:50;;;;;;;7.45;3.63;;;12.30;87.60;;;;;;5072558;28;20510;-76
2023/03/24 01:40:22;;;;;;;5.10;2.67;;;12.30;87.60;;;;;;5095778;28;20575;-76
2023/03/24 01:42:50;;;;;;;6.32;3.45;;;12.30;87.70;;;;;;5078337;28;20051;-76
2023/03/24 01:45:37;;;;;;;5.13;2.30;;;12.30;87.70;;;;;;5110717;27;20039;-76
2023/03/24 01:48:05;;;;;;;4.93;2.80;;;12.30;87.70;;;;;;5098874;27;20130;-76
2023/03/24 01:50:31;;;;;;;4.72;2.88;;;12.30;87.70;;;;;;5061972;28;20035;-77
2023/03/24 01:52:58;;;;;;;6.72;2.97;;;12.30;87.70;;;;;;5095505;28;20051;-76
2023/03/24 01:55:25;;;;;;;4.93;2.83;;;12.30;87.80;;;;;;5095292;28;20562;-76
2023/03/24 01:57:53;;;;;;;7.05;3.65;;;12.30;87.70;;;;;;5078442;28;20391;-76
2023/03/24 02:00:20;;;;;;;3.67;2.38;;;12.30;87.80;;;;;;5077936;28;20105;-76
2023/03/24 02:03:00;;;;;;;6.15;2.92;;;12.40;87.80;;;;;;5078195;28;20038;-76
2023/03/24 02:05:30;;;;;;;6.53;2.90;;;12.40;87.90;;;;;;5096838;28;20070;-76
2023/03/24 02:08:07;;;;;;;7.65;3.30;;;12.40;87.90;;;;;;5095467;28;20410;-77
2023/03/24 02:10:35;;;;;;;7.07;3.33;;;12.30;87.80;;;;;;5078160;28;20126;-77
2023/03/24 02:13:00;;;;;;;5.22;2.78;;;12.30;87.90;;;;;;5078072;28;20047;-76
2023/03/24 02:15:29;;;;;;;5.55;3.50;;;12.40;87.80;;;;;;5129850;28;20100;-76
2023/03/24 02:18:17;;;;;;;5.25;2.67;;;12.40;87.80;;;;;;5077892;28;20115;-76
2023/03/24 02:21:20;;;;;;;4.10;2.90;;;12.40;87.90;;;;;;5111968;28;20050;-77
2023/03/24 02:24:07;;;;;;;5.47;3.10;;;12.40;87.90;;;;;;5094900;28;20122;-77
2023/03/24 02:27:26;;;;;;;5.50;2.75;;;12.40;87.90;;;;;;5077984;28;20040;-76
2023/03/24 02:30:17;;;;;;;5.72;3.30;;;12.40;87.70;;;;;;5049542;28;20464;-76
2023/03/24 02:32:55;;;;;;;5.53;3.53;;;12.40;87.90;;;;;;5078343;28;20040;-77
2023/03/24 02:35:39;;;;;;;4.75;3.05;;;12.40;87.90;;;;;;5078052;28;20040;-77
2023/03/24 02:38:23;;;;;;;5.40;3.53;;;12.40;87.90;;;;;;5077858;28;20081;-77
2023/03/24 02:41:14;;;;;;;5.32;3.30;;;12.50;88.00;;;;;;5079280;27;20043;-77
2023/03/24 02:43:51;;;;;;;5.32;3.30;;;12.40;87.90;;;;;;5109374;28;20051;-77
2023/03/24 02:46:43;;;;;;;7.25;3.30;;;12.50;88.00;;;;;;5133000;27;20049;-77
2023/03/24 02:49:08;;;;;;;6.53;3.13;;;12.40;87.90;;;;;;5074728;28;20055;-76
2023/03/24 02:51:39;;;;;;;4.03;2.95;;;12.50;88.00;;;;;;5098541;28;20048;-77
2023/03/24 02:54:26;;;;;;;6.47;3.35;;;12.50;88.10;;;;;;5081746;28;20039;-79
2023/03/24 02:57:11;;;;;;;7.50;3.65;;;12.50;88.20;;;;;;5104445;28;20039;-77
2023/03/24 02:59:58;;;;;;;;;;;12.50;88.20;;;;;;5098973;28;20050;-76
2023/03/24 03:02:29;;;;;;;5.13;3.00;;;12.50;87.90;;;;;;5098681;28;20379;-77
2023/03/24 03:05:07;;;;;;;5.00;3.15;;;12.50;88.10;;;;;;5098886;28;20031;-77
2023/03/24 03:07:36;;;;;;;4.00;2.80;;;12.50;88.10;;;;;;5098730;28;20031;-76
2023/03/24 03:10:45;;;;;;;5.15;3.20;;;12.50;88.10;;;;;;5098107;28;20040;-77
2023/03/24 03:13:20;;;;;;;5.75;3.47;;;12.50;88.10;;;;;;5081519;28;20093;-77
2023/03/24 03:15:50;;;;;;;5.32;3.00;;;12.50;88.10;;;;;;5081843;28;20123;-77
2023/03/24 03:18:24;;;;;;;5.60;3.25;;;12.50;88.10;;;;;;5098498;28;20429;-77
2023/03/24 03:20:56;;;;;;;4.90;2.60;;;12.50;88.20;;;;;;5088136;27;20394;-78
2023/03/24 03:23:40;;;;;;;4.18;1.88;;;12.50;88.20;;;;;;5099475;28;20111;-77
2023/03/24 03:26:12;;;;;;;5.60;2.17;;;12.50;87.80;;;;;;5081068;28;20032;-78
2023/03/24 03:28:48;;;;;;;2.92;1.40;;;12.50;87.20;;;;;;5101093;28;20096;-78
2023/03/24 03:31:23;;;;;;;3.40;1.70;;;12.50;86.70;;;;;;5081701;28;20039;-78
2023/03/24 03:33:51;;;;;;;4.55;2.03;;;12.40;86.20;;;;;;5081454;28;20055;-77
2023/03/24 03:36:28;;;;;;;6.22;2.08;;;12.40;85.80;;;;;;5098058;28;20433;-78
2023/03/24 03:38:53;;;;;;;4.70;1.90;;;12.30;85.30;;;;;;5081416;28;20454;-78
2023/03/24 03:41:19;;;;;;;4.93;1.85;;;12.30;85.10;;;;;;5081225;28;20135;-78
2023/03/24 03:43:47;;;;;;;7.10;1.90;;;12.20;84.80;;;;;;5098191;28;20039;-78
2023/03/24 03:46:14;;;;;;;6.43;1.65;;;12.20;84.60;;;;;;5097700;28;20554;-78
2023/03/24 03:48:41;;;;;;;6.57;1.80;;;12.10;84.60;;;;;;5097800;28;20050;-78
2023/03/24 03:51:08;;;;;;;4.88;1.33;;;12.10;84.50;;;;;;5080909;28;20046;-78
2023/03/24 03:53:50;;;;;;;7.05;2.45;;;12.00;84.30;;;;;;5060033;28;20036;-79
2023/03/24 03:56:22;;;;;;;3.35;1.65;;;12.00;84.40;;;;;;5097428;28;20422;-79
2023/03/24 03:58:48;;;;;;;7.93;2.40;;;12.00;84.50;;;;;;5097350;28;20150;-78
2023/03/24 04:01:21;;;;;;;5.50;1.60;;;11.90;84.50;;;;;;5063778;28;20126;-76
2023/03/24 04:04:09;;;;;;;5.38;1.60;;;11.90;84.40;;;;;;5059655;28;20047;-77
2023/03/24 04:07:22;;;;;;;6.32;1.63;;;11.80;84.30;;;;;;5059662;28;20123;-77
2023/03/24 04:09:57;;;;;;;6.88;1.88;;;11.80;84.30;;;;;;5062785;28;20487;-77
2023/03/24 04:12:41;;;;;;;5.43;1.90;;;11.70;84.40;;;;;;5079356;28;20050;-77
2023/03/24 04:15:33;;;;;;;9.70;2.10;;;11.70;84.30;;;;;;5095809;28;20032;-78
2023/03/24 04:18:23;;;;;;;8.10;2.00;;;11.70;84.00;;;;;;5076588;28;20116;-78
2023/03/24 04:21:27;;;;;;;9.32;2.05;;;11.60;84.10;;;;;;5075837;28;20150;-78
2023/03/24 04:24:12;;;;;;;10.38;2.13;;;11.60;83.90;;;;;;5084707;28;20518;-78
2023/03/24 04:26:59;;;;;;;9.60;2.08;;;11.50;84.10;;;;;;5129728;27;20039;-78
2023/03/24 04:29:45;;;;;;;9.65;2.00;;;11.50;83.70;;;;;;5095634;28;20048;-78
2023/03/24 04:32:27;;;;;;;7.90;1.70;;;11.50;83.80;;;;;;5078802;28;20081;-78
2023/03/24 04:35:00;;;;;;;13.82;2.88;;;11.40;83.80;;;;;;5095718;28;20344;-78
2023/03/24 04:37:36;;;;;;;8.93;2.40;;;11.40;83.90;;;;;;5078902;28;20122;-78
2023/03/24 04:40:10;;;;;;;10.32;2.83;;;11.40;83.90;;;;;;5078530;28;20043;-78
2023/03/24 04:42:46;;;;;;;8.18;2.55;;;11.40;83.90;;;;;;5095338;28;20126;-78
2023/03/24 04:45:15;;;;;;;9.98;2.53;;;11.30;83.90;;;;;;5109291;28;20044;-77
2023/03/24 04:47:46;;;;;;;11.30;2.50;;;11.30;83.80;;;;;;5078687;28;20038;-78
2023/03/24 04:50:13;;;;;;;8.70;2.33;;;11.30;83.70;;;;;;5078528;27;20122;-78
2023/03/24 04:52:40;;;;;;;13.90;2.22;;;11.20;83.80;;;;;;5078292;28;20039;-78
2023/03/24 04:55:44;;;;;;;9.95;2.38;;;11.20;83.80;;;;;;5078621;28;20097;-78
2023/03/24 04:58:10;;;;;;;11.00;2.15;;;11.20;83.70;;;;;;5078965;28;20394;-78
2023/03/24 05:00:36;;;;;;;11.95;3.05;;;11.20;83.70;;;;;;5077930;28;20043;-78
2023/03/24 05:03:02;;;;;;;14.45;2.83;;;11.10;83.50;;;;;;5077916;28;20085;-78
2023/03/24 05:05:28;;;;;;;12.05;2.80;;;11.10;83.50;;;;;;5060636;28;20078;-78
2023/03/24 05:07:55;;;;;;;10.90;2.28;;;11.00;83.40;;;;;;5078280;28;20067;-78
2023/03/24 05:10:22;;;;;;;11.65;2.38;;;11.10;83.50;;;;;;5094643;28;20067;-78
2023/03/24 05:12:49;;;;;;;8.55;1.80;;;11.00;83.40;;;;;;5091275;28;20118;-78
2023/03/24 05:15:14;;;;;;;11.68;2.47;;;11.00;83.30;;;;;;5044756;28;20041;-78
2023/03/24 05:17:40;;;;;;;8.52;2.10;;;11.00;83.30;;;;;;5078022;28;20114;-77
2023/03/24 05:20:10;;;;;;;13.15;2.00;;;10.90;83.20;;;;;;5094391;28;20069;-78
2023/03/24 05:22:38;;;;;;;11.10;2.78;;;10.90;83.10;;;;;;5045417;28;20040;-78
2023/03/24 05:25:05;;;;;;;9.35;2.25;;;10.80;83.10;;;;;;5099830;27;20038;-78
2023/03/24 05:27:30;;;;;;;10.90;2.10;;;10.80;83.20;;;;;;5088258;28;20043;-78
2023/03/24 05:29:56;;;;;;;10.52;2.88;;;10.80;83.20;;;;;;5080667;28;20092;-78
2023/03/24 05:32:22;;;;;;;12.05;2.45;;;10.80;83.20;;;;;;5066762;28;20047;-78
2023/03/24 05:34:47;;;;;;;10.05;1.92;;;10.70;83.20;;;;;;5059475;28;20464;-78
2023/03/24 05:37:15;;;;;;;9.13;2.42;;;10.70;83.10;;;;;;5077447;28;20425;-78
2023/03/24 05:39:42;;;;;;;8.55;2.58;;;10.70;83.20;;;;;;5078042;28;20039;-78
2023/03/24 05:42:07;;;;;;;10.20;2.35;;;10.70;83.30;;;;;;5077433;28;20058;-78
2023/03/24 05:44:33;;;;;;;9.90;2.30;;;10.60;83.30;;;;;;5099933;28;20035;-78
2023/03/24 05:46:59;;;;;;;13.55;2.42;;;10.60;83.40;;;;;;5075737;28;20096;-78
2023/03/24 05:49:25;;;;;;;9.20;1.92;;;10.60;83.40;;;;;;5091242;28;20047;-78
2023/03/24 05:51:51;;;;;;;6.80;1.80;;;10.50;83.40;;;;;;5092145;28;20083;-78
2023/03/24 05:54:16;;;;;;;11.73;2.53;;;10.50;83.50;;;;;;5077336;28;20503;-78
2023/03/24 05:56:42;;;;;;;8.55;2.38;;;10.50;83.50;;;;;;5094249;28;20040;-78
2023/03/24 05:59:08;;;;;;;10.63;2.50;;;10.50;83.60;;;;;;5110914;28;20046;-78
2023/03/24 06:01:33;;;;;;;9.60;2.10;;;10.50;83.60;;;;;;5076917;28;20092;-77
2023/03/24 06:03:59;;;;;;;8.93;1.83;;;10.50;83.60;;;;;;5068659;28;20035;-78
2023/03/24 06:06:27;;;;;;;11.38;2.00;;;10.50;83.70;;;;;;5061574;28;20039;-78
2023/03/24 06:08:57;;;;;;;9.02;2.10;;;10.40;83.70;;;;;;5060828;28;20394;-78
2023/03/24 06:11:23;;;;;;;13.60;2.42;;;10.40;83.70;;;;;;5080924;28;20067;-79
2023/03/24 06:13:49;;;;;;;10.68;2.65;;;10.40;83.90;;;;;;5127982;28;20074;-78
2023/03/24 06:16:17;;;;;;;11.77;2.58;;;10.40;84.00;;;;;;5096173;28;20038;-78
2023/03/24 06:18:51;;;;;;;7.22;2.78;;;10.40;84.00;;;;;;5098492;28;20142;-78
2023/03/24 06:21:18;;;;;;;7.30;2.25;;;10.40;84.00;;;;;;5099371;28;20032;-78
2023/03/24 06:23:45;;;;;;;12.68;2.47;;;10.40;84.10;;;;;;5098291;28;20051;-78
2023/03/24 06:26:12;;;;;;;12.90;2.13;;;10.40;84.20;;;;;;5061481;28;20119;-78
2023/03/24 06:28:40;;;;;;;10.98;2.47;;;10.40;84.10;;;;;;5094612;28;20127;-78
2023/03/24 06:31:20;;;;;;;11.70;2.38;;;10.40;84.10;;;;;;5095009;28;20036;-78
2023/03/24 06:33:50;;;;;;;13.48;2.72;;;10.40;84.00;;;;;;5072431;28;20063;-78
2023/03/24 06:36:17;;;;;;;11.65;2.60;;;10.50;84.10;;;;;;5099001;28;20458;-78
2023/03/24 06:38:44;;;;;;;7.78;2.38;;;10.50;84.10;;;;;;5081491;28;20474;-78
2023/03/24 06:41:10;;;;;;;12.00;2.67;;;10.50;84.10;;;;;;5098605;27;20555;-79
2023/03/24 06:43:36;;;;;;;10.77;2.30;;;10.50;84.10;;;;;;5089076;28;20118;-79
2023/03/24 06:46:02;;;;;;;11.45;2.53;;;10.50;84.00;;;;;;5044968;28;20129;-79
2023/03/24 06:48:28;;;;;;;12.75;3.30;;;10.60;84.10;;;;;;5092012;28;20471;-79
2023/03/24 06:50:54;;;;;;;11.35;2.75;;;10.60;83.90;;;;;;5081468;28;20122;-76
2023/03/24 06:53:21;;;;;;;11.35;3.50;;;10.60;83.80;;;;;;5093246;28;20064;-79
2023/03/24 06:55:49;;;;;;;14.90;3.47;;;10.60;84.20;;;;;;5105885;28;20039;-77
2023/03/24 06:58:16;;;;;;;14.90;2.63;;;10.60;83.80;;;;;;5081620;28;20036;-77
2023/03/24 07:00:46;;;;;;;19.15;3.35;;;10.70;83.90;;;;;;5099570;28;20074;-77
2023/03/24 07:03:14;;;;;;;12.30;2.65;;;10.70;83.70;;;;;;5096461;28;20368;-78
2023/03/24 07:05:42;;;;;;;13.32;2.97;;;10.70;83.50;;;;;;5071581;28;20036;-78
2023/03/24 07:08:08;;;;;;;16.48;2.72;;;10.70;83.50;;;;;;5097772;28;20133;-78
2023/03/24 07:10:35;;;;;;;15.77;3.25;;;10.70;83.50;;;;;;5092901;28;20395;-78
2023/03/24 07:13:02;;;;;;;14.57;3.53;;;10.70;83.40;;;;;;5091840;28;20093;-78
2023/03/24 07:15:28;;;;;;;13.43;2.67;;;10.80;83.30;;;;;;5080250;28;20035;-78
2023/03/24 07:17:54;;;;;;;15.73;2.88;;;10.80;83.10;;;;;;5094069;28;20047;-78
2023/03/24 07:20:20;;;;;;;11.65;2.83;;;10.80;83.00;;;;;;5117329;27;20040;-78
2023/03/24 07:22:46;;;;;;;16.75;3.83;;;10.80;82.90;;;;;;5093753;28;20114;-78
2023/03/24 07:25:13;;;;;;;16.20;4.15;;;10.80;82.70;;;;;;5080592;28;20039;-78
2023/03/24 07:27:39;;;;;;;16.55;2.88;;;10.80;82.70;;;;;;5059025;28;20035;-78
2023/03/24 07:30:05;;;;;;;19.50;4.40;;;10.90;82.40;;;;;;5078530;27;20118;-78
2023/03/24 07:32:38;;;;;;;14.00;3.63;;;10.90;82.30;;;;;;5088229;27;20054;-82
2023/03/24 07:35:09;;;;;;;15.45;3.58;;;10.90;82.20;;;;;;5105140;27;20035;-78
2023/03/24 07:37:35;;;;;;;15.95;3.60;;;10.90;82.20;;;;;;5100378;27;20043;-77
2023/03/24 07:40:06;;;;;;;19.20;4.55;;;10.90;82.10;;;;;;5083252;27;20467;-78
2023/03/24 07:42:32;;;;;;;20.13;3.45;;;10.90;82.00;;;;;;5083986;27;20051;-77
2023/03/24 07:44:58;;;;;;;15.30;3.42;;;11.00;82.00;;;;;;5066357;27;20546;-77
2023/03/24 07:47:23;;;;;;;20.70;3.72;;;11.00;81.90;;;;;;5066603;27;20081;-77
2023/03/24 07:49:49;;;;;;;19.50;3.42;;;11.00;81.80;;;;;;5065965;28;20039;-78
2023/03/24 07:52:15;;;;;;;20.90;3.13;;;11.00;81.90;;;;;;5046523;28;20087;-78
2023/03/24 07:54:40;;;;;;;15.10;3.33;;;11.10;82.00;;;;;;5096622;28;20483;-77
2023/03/24 07:57:06;;;;;;;19.33;4.15;;;11.10;82.00;;;;;;5079314;28;20481;-78
2023/03/24 07:59:33;;;;;;;16.88;3.10;;;11.10;81.90;;;;;;5079143;28;20075;-78
2023/03/24 08:01:59;;;;;;;15.63;3.47;;;11.10;81.70;;;;;;5046404;28;20035;-77
2023/03/24 08:04:27;;;;;;;24.40;4.22;;;11.20;81.60;;;;;;5079080;28;20047;-78
2023/03/24 08:06:53;;;;;;;20.65;3.72;;;11.20;81.50;;;;;;5080454;28;20028;-78
2023/03/24 08:09:19;;;;;;;17.52;4.15;;;11.20;81.40;;;;;;5095698;28;20522;-78
2023/03/24 08:11:45;;;;;;;21.92;3.67;;;11.30;81.20;;;;;;5062582;28;20100;-78
2023/03/24 08:14:10;;;;;;;17.38;3.60;;;11.30;81.10;;;;;;5096400;28;20109;-78
2023/03/24 08:16:39;;;;;;;17.67;4.25;;;11.30;80.90;;;;;;5096303;28;20051;-77
2023/03/24 08:19:05;;;;;;;20.80;4.25;;;11.30;80.80;;;;;;5093724;28;20044;-77
2023/03/24 08:21:30;;;;;;;19.08;3.65;;;11.40;80.50;;;;;;5059443;28;20126;-77
2023/03/24 08:23:56;;;;;;;17.42;4.45;;;11.40;80.30;;;;;;5093015;28;20115;-78
2023/03/24 08:26:25;;;;;;;18.20;3.40;;;11.40;80.10;;;;;;5076068;28;20044;-77
2023/03/24 08:28:51;;;;;;;19.13;3.38;;;11.40;80.00;;;;;;5075269;28;20036;-77
2023/03/24 08:31:17;;;;;;;15.40;3.05;;;11.50;79.90;;;;;;5075942;28;20079;-77
2023/03/24 08:33:43;;;;;;;16.15;3.10;;;11.50;79.60;;;;;;5110265;27;20060;-77
2023/03/24 08:36:08;;;;;;;16.92;3.80;;;11.50;79.10;;;;;;5112484;28;20588;-77
2023/03/24 08:38:37;;;;;;;20.65;4.38;;;11.50;79.10;;;;;;5078755;28;20089;-77
2023/03/24 08:41:05;;;;;;;12.90;3.42;;;11.50;79.10;;;;;;5096175;28;20040;-77
2023/03/24 08:43:33;;;;;;;18.52;3.90;;;11.60;78.70;;;;;;5078952;28;20056;-78
2023/03/24 08:46:00;;;;;;;16.65;3.75;;;11.60;78.60;;;;;;5058673;28;20388;-77
2023/03/24 08:48:28;;;;;;;19.15;4.22;;;11.60;78.20;;;;;;5109377;28;20455;-77
2023/03/24 08:50:55;;;;;;;13.55;2.83;;;11.60;78.30;;;;;;5093178;28;20036;-78
2023/03/24 08:53:21;;;;;;;18.90;4.53;;;11.80;78.70;;;;;;5109996;28;20036;-78
2023/03/24 08:55:47;;;;;;;19.27;3.60;;;11.90;78.90;;;;;;5059314;28;20534;-78
2023/03/24 08:58:15;;;;;;;14.18;3.65;;;12.10;78.30;;;;;;5092544;28;20044;-78
2023/03/24 09:00:43;;;;;;;17.08;4.10;;;12.40;78.10;;;;;;5084249;28;20036;-78
2023/03/24 09:03:13;;;;;;;17.55;3.08;;;12.50;77.70;;;;;;5095910;28;20035;-78
2023/03/24 09:05:39;;;;;;;12.27;3.20;;;12.80;77.10;;;;;;5079134;28;20036;-78
2023/03/24 09:08:06;;;;;;;15.60;3.90;;;13.00;76.30;;;;;;5078906;28;20032;-78
2023/03/24 09:10:32;;;;;;;17.92;3.90;;;13.20;75.50;;;;;;5062462;28;20078;-77
2023/03/24 09:12:59;;;;;;;21.63;3.92;;;13.40;73.90;;;;;;5095579;28;20475;-77
2023/03/24 09:15:25;;;;;;;16.30;3.83;;;13.50;72.20;;;;;;5078758;28;20046;-78
2023/03/24 09:17:50;;;;;;;19.67;3.75;;;13.60;71.60;;;;;;5112615;28;20122;-78
2023/03/24 09:20:17;;;;;;;16.23;3.70;;;13.60;71.50;;;;;;5061998;28;20130;-78
2023/03/24 09:22:45;;;;;;;12.32;3.45;;;13.70;70.70;;;;;;5095821;28;20419;-78
2023/03/24 09:25:13;;;;;;;16.58;3.97;;;13.80;70.40;;;;;;5078483;28;20035;-77
2023/03/24 09:27:39;;;;;;;12.60;3.17;;;13.80;69.00;;;;;;5095581;28;20047;-78
2023/03/24 09:30:06;;;;;;;15.15;3.65;;;13.80;67.70;;;;;;5095259;28;20039;-78
2023/03/24 09:32:32;;;;;;;23.02;4.22;;;13.80;66.60;;;;;;5078571;28;20057;-77
2023/03/24 09:34:59;;;;;;;18.85;4.03;;;13.70;66.50;;;;;;5077686;28;20101;-78
2023/03/24 09:37:29;;;;;;;14.07;3.63;;;13.60;66.70;;;;;;5078223;28;20086;-78
2023/03/24 09:39:54;;;;;;;15.20;4.00;;;13.50;66.80;;;;;;5078242;28;20394;-78
2023/03/24 09:42:29;;;;;;;19.42;4.05;;;13.40;67.30;;;;;;5095153;28;20054;-78
2023/03/24 09:44:56;;;;;;;;;;;13.40;67.40;;;;;;5078846;28;20117;-78
2023/03/24 09:47:33;;;;;;;16.10;4.47;;;13.30;68.50;;;;;;5095159;28;19923;-77
2023/03/24 09:50:16;;;;;;;19.25;4.05;;;13.30;69.90;;;;;;5077810;28;20039;-78
2023/03/24 09:52:46;;;;;;;16.38;4.30;;;13.50;69.60;;;;;;5078108;28;20081;-78
2023/03/24 09:55:18;;;;;;;12.82;3.92;;;13.60;68.80;;;;;;5094798;28;20491;-78
2023/03/24 09:57:47;;;;;;;18.05;3.42;;;13.70;68.40;;;;;;5095065;28;20088;-78
2023/03/24 10:00:28;;;;;;;15.43;4.03;;;13.80;67.00;;;;;;5078042;28;20035;-78
2023/03/24 10:03:00;;;;;;;12.80;3.33;;;13.90;65.80;;;;;;5078287;28;20040;-78
2023/03/24 10:05:37;;;;;;;14.50;3.22;;;14.00;65.10;;;;;;5080702;28;20043;-77
2023/03/24 10:08:23;;;;;;;15.63;3.15;;;14.10;65.10;;;;;;5079903;28;20039;-78
2023/03/24 10:10:57;;;;;;;13.20;3.85;;;14.10;65.10;;;;;;5078166;28;20043;-78
2023/03/24 10:13:44;;;;;;;12.70;2.50;;;14.20;64.90;;;;;;5098971;28;20406;-77
2023/03/24 10:16:34;;;;;;;16.38;3.95;;;14.30;65.00;;;;;;5097928;28;20424;-77
2023/03/24 10:19:42;;;;;;;14.05;3.47;;;14.30;64.10;;;;;;5096099;28;20051;-77
2023/03/24 10:22:36;;;;;;;16.65;3.03;;;14.40;64.30;;;;;;5043803;28;20130;-78
2023/03/24 10:25:05;;;;;;;15.93;3.97;;;14.50;62.90;;;;;;5077494;28;20036;-78
2023/03/24 10:27:40;;;;;;;12.10;2.88;;;14.50;62.60;;;;;;5077318;28;20039;-78
2023/03/24 10:30:42;;;;;;;14.57;3.67;;;14.50;62.60;;;;;;5094049;28;20056;-78
2023/03/24 10:33:12;;;;;;;12.18;3.00;;;14.50;61.50;;;;;;5072248;28;20055;-79
2023/03/24 10:36:00;;;;;;;11.88;2.95;;;14.50;62.10;;;;;;5077255;28;20036;-79
2023/03/24 10:38:27;;;;;;;14.90;4.53;;;14.50;63.10;;;;;;5076665;28;20051;-78
2023/03/24 10:40:53;;;;;;;14.60;3.40;;;14.50;63.10;;;;;;5076467;28;20062;-79
2023/03/24 10:43:22;;;;;;;13.40;3.03;;;14.60;63.20;;;;;;5077037;28;20134;-78
2023/03/24 10:45:50;;;;;;;13.95;3.03;;;14.60;61.80;;;;;;5077201;28;20391;-78
2023/03/24 10:48:35;;;;;;;14.95;3.97;;;14.60;61.60;;;;;;5076821;28;20032;-79
2023/03/24 10:51:01;;;;;;;15.23;3.00;;;14.60;61.00;;;;;;5077574;28;20036;-78
2023/03/24 10:53:27;;;;;;;11.52;3.13;;;14.50;60.70;;;;;;5090930;28;20044;-78
2023/03/24 10:55:52;;;;;;;11.77;3.50;;;14.50;60.90;;;;;;5084734;28;20400;-78
2023/03/24 10:58:41;;;;;;;14.07;3.53;;;14.50;60.80;;;;;;5091079;28;20047;-77
2023/03/24 11:01:21;;;;;;;13.35;3.33;;;14.50;59.80;;;;;;5081608;28;20040;-78
2023/03/24 11:03:48;;;;;;;12.30;3.15;;;14.50;59.80;;;;;;5080546;28;20035;-78
2023/03/24 11:06:20;;;;;;;9.82;2.78;;;14.50;60.60;;;;;;5080679;28;20040;-78
2023/03/24 11:08:46;;;;;;;13.85;3.17;;;14.50;60.30;;;;;;5081092;28;20589;-79
2023/03/24 11:11:33;;;;;;;13.70;3.13;;;14.50;61.30;;;;;;5097745;28;20180;-78
2023/03/24 11:14:01;;;;;;;13.10;3.35;;;14.50;60.50;;;;;;5097992;28;20054;-78
2023/03/24 11:16:42;;;;;;;17.02;3.28;;;14.50;60.90;;;;;;5090836;28;20051;-78
2023/03/24 11:19:21;;;;;;;13.20;2.65;;;14.60;60.60;;;;;;5068821;28;20047;-78
2023/03/24 11:21:48;;;;;;;13.65;3.03;;;14.60;61.20;;;;;;5089995;28;20511;-78
2023/03/24 11:24:17;;;;;;;18.50;3.80;;;14.60;60.50;;;;;;5091310;28;20085;-77
2023/03/24 11:27:15;;;;;;;12.88;2.85;;;14.70;61.00;;;;;;5070412;28;20043;-78
2023/03/24 11:29:42;;;;;;;10.98;2.88;;;14.70;60.60;;;;;;5073141;28;20087;-78
2023/03/24 11:32:13;;;;;;;14.00;3.22;;;14.80;61.80;;;;;;5071766;28;20122;-77
2023/03/24 11:34:48;;;;;;;8.45;2.50;;;14.80;61.70;;;;;;5123008;27;20031;-78
2023/03/24 11:37:27;;;;;;;11.43;2.85;;;14.90;62.00;;;;;;5088874;28;20092;-78
2023/03/24 11:40:15;;;;;;;16.63;2.97;;;15.00;62.50;;;;;;5090163;28;20036;-78
2023/03/24 11:42:45;;;;;;;14.80;3.13;;;15.10;62.90;;;;;;5077258;28;20066;-78
2023/03/24 11:45:22;;;;;;;16.17;3.92;;;15.20;62.40;;;;;;5106461;28;20047;-78
2023/03/24 11:47:51;;;;;;;13.90;3.65;;;15.20;61.70;;;;;;5071546;28;20035;-78
2023/03/24 11:50:22;;;;;;;10.70;2.78;;;15.30;61.50;;;;;;5073451;28;20464;-77
2023/03/24 11:52:59;;;;;;;9.90;2.08;;;15.30;60.20;;;;;;5088274;28;20066;-78
2023/03/24 11:55:40;;;;;;;15.23;2.97;;;15.30;59.50;;;;;;5122885;27;20051;-78
2023/03/24 11:58:18;;;;;;;7.47;2.00;;;15.30;59.90;;;;;;5101838;28;20050;-78
2023/03/24 12:01:00;;;;;;;9.18;2.67;;;15.30;60.30;;;;;;5104427;28;20059;-77
2023/03/24 12:03:42;;;;;;;8.50;2.05;;;15.40;59.20;;;;;;5089142;28;20031;-78
2023/03/24 12:06:44;;;;;;;11.77;2.65;;;15.30;57.90;;;;;;5071937;28;20048;-77
2023/03/24 12:09:35;;;;;;;9.35;2.83;;;15.30;57.20;;;;;;5090289;28;20036;-77
2023/03/24 12:12:35;;;;;;;11.30;2.30;;;15.30;57.10;;;;;;5079929;28;20043;-78
2023/03/24 12:15:19;;;;;;;10.93;3.40;;;15.30;56.50;;;;;;5078604;28;20035;-77
2023/03/24 12:18:22;;;;;;;13.98;2.55;;;15.30;56.30;;;;;;5096284;28;20043;-77
2023/03/24 12:20:47;;;;;;;11.10;2.47;;;15.20;56.40;;;;;;5078915;28;20468;-77
2023/03/24 12:23:36;;;;;;;12.35;3.30;;;15.20;57.20;;;;;;5095376;28;20067;-77
2023/03/24 12:26:15;;;;;;;13.40;2.78;;;15.20;57.30;;;;;;5073952;28;20510;-78
2023/03/24 12:28:56;;;;;;;10.95;2.50;;;15.20;57.00;;;;;;5062476;28;20036;-75
2023/03/24 12:31:22;;;;;;;15.02;3.78;;;15.20;56.90;;;;;;5093963;28;20497;-78
2023/03/24 12:33:57;;;;;;;10.18;2.50;;;15.10;56.80;;;;;;5095292;28;20035;-77
2023/03/24 12:36:57;;;;;;;11.20;3.17;;;15.10;55.60;;;;;;5073876;27;20036;-76
2023/03/24 12:39:57;;;;;;;13.90;3.53;;;15.10;56.40;;;;;;5079066;28;20518;-77
2023/03/24 12:42:31;;;;;;;10.10;2.60;;;15.10;56.90;;;;;;5116671;27;20052;-77
2023/03/24 12:45:03;;;;;;;12.70;2.85;;;15.10;57.50;;;;;;5068113;28;20502;-76
2023/03/24 12:47:37;;;;;;;15.77;3.50;;;15.10;57.10;;;;;;5084622;28;20035;-76
2023/03/24 12:50:31;;;;;;;11.35;2.90;;;15.10;56.80;;;;;;5118171;27;20043;-76
2023/03/24 12:53:15;;;;;;;12.32;2.45;;;15.10;56.80;;;;;;5071109;28;20075;-76
2023/03/24 12:55:51;;;;;;;15.50;3.10;;;15.10;57.00;;;;;;5084023;28;20770;-77
2023/03/24 12:58:27;;;;;;;10.40;2.40;;;15.00;57.60;;;;;;5068493;28;20059;-77
2023/03/24 13:01:02;;;;;;;14.10;3.08;;;15.00;57.80;;;;;;5085636;28;20043;-77
2023/03/24 13:03:57;;;;;;;14.73;3.45;;;15.00;57.70;;;;;;5097643;27;20038;-77
2023/03/24 13:06:34;;;;;;;16.05;3.08;;;15.00;57.40;;;;;;5068031;28;20039;-76
2023/03/24 13:09:39;;;;;;;12.93;3.28;;;15.00;57.60;;;;;;5069643;28;20681;-77